sensor_id;sensor_type;location;lat;lon;timestamp;P1;durP1;ratioP1;P2;durP2;ratioP2
17937;SDS011;16051;53.024;8.630;2022-12-07T00:00:30;9.90;;;5.97;;
17937;SDS011;16051;53.024;8.630;2022-12-07T00:04:32;9.20;;;6.10;;
17937;SDS011;16051;53.024;8.630;2022-12-07T00:08:34;9.47;;;5.87;;
17937;SDS011;16051;53.024;8.630;2022-12-07T00:17:14;10.53;;;5.83;;
17937;SDS011;16051;53.024;8.630;2022-12-07T00:21:17;9.67;;;6.90;;
17937;SDS011;16051;53.024;8.630;2022-12-07T00:25:21;9.60;;;5.97;;
17937;SDS011;16051;53.024;8.630;2022-12-07T00:29:23;10.53;;;6.70;;
17937;SDS011;16051;53.024;8.630;2022-12-07T00:33:26;9.63;;;6.57;;
17937;SDS011;16051;53.024;8.630;2022-12-07T00:37:30;7.77;;;5.90;;
17937;SDS011;16051;53.024;8.630;2022-12-07T00:41:32;10.87;;;6.50;;
17937;SDS011;16051;53.024;8.630;2022-12-07T00:49:51;10.53;;;6.60;;
17937;SDS011;16051;53.024;8.630;2022-12-07T00:53:54;11.47;;;6.23;;
17937;SDS011;16051;53.024;8.630;2022-12-07T00:57:56;9.70;;;5.50;;
17937;SDS011;16051;53.024;8.630;2022-12-07T01:01:58;10.60;;;5.67;;
17937;SDS011;16051;53.024;8.630;2022-12-07T01:06:07;8.57;;;5.67;;
17937;SDS011;16051;53.024;8.630;2022-12-07T01:10:10;8.17;;;5.47;;
17937;SDS011;16051;53.024;8.630;2022-12-07T01:14:13;9.17;;;5.23;;
17937;SDS011;16051;53.024;8.630;2022-12-07T01:18:15;7.83;;;5.20;;
17937;SDS011;16051;53.024;8.630;2022-12-07T01:22:18;9.43;;;4.73;;
17937;SDS011;16051;53.024;8.630;2022-12-07T01:26:21;7.03;;;4.50;;
17937;SDS011;16051;53.024;8.630;2022-12-07T01:30:25;9.53;;;4.23;;
17937;SDS011;16051;53.024;8.630;2022-12-07T01:34:27;13.70;;;5.20;;
17937;SDS011;16051;53.024;8.630;2022-12-07T01:38:30;8.67;;;5.20;;
17937;SDS011;16051;53.024;8.630;2022-12-07T01:42:33;8.70;;;4.47;;
17937;SDS011;16051;53.024;8.630;2022-12-07T01:46:36;6.87;;;4.30;;
17937;SDS011;16051;53.024;8.630;2022-12-07T01:50:38;8.73;;;4.43;;
17937;SDS011;16051;53.024;8.630;2022-12-07T01:54:46;5.87;;;3.87;;
17937;SDS011;16051;53.024;8.630;2022-12-07T01:58:54;6.30;;;4.63;;
17937;SDS011;16051;53.024;8.630;2022-12-07T02:03:03;7.63;;;4.30;;
17937;SDS011;16051;53.024;8.630;2022-12-07T02:07:10;9.67;;;5.00;;
17937;SDS011;16051;53.024;8.630;2022-12-07T02:11:15;6.57;;;3.93;;
17937;SDS011;16051;53.024;8.630;2022-12-07T02:15:18;7.20;;;4.13;;
17937;SDS011;16051;53.024;8.630;2022-12-07T02:24:16;8.20;;;4.43;;
17937;SDS011;16051;53.024;8.630;2022-12-07T02:28:44;8.07;;;4.17;;
17937;SDS011;16051;53.024;8.630;2022-12-07T02:33:11;12.00;;;4.57;;
17937;SDS011;16051;53.024;8.630;2022-12-07T02:37:19;7.73;;;4.37;;
17937;SDS011;16051;53.024;8.630;2022-12-07T02:41:38;8.03;;;4.47;;
17937;SDS011;16051;53.024;8.630;2022-12-07T02:50:32;7.40;;;4.03;;
17937;SDS011;16051;53.024;8.630;2022-12-07T02:54:34;6.33;;;3.97;;
17937;SDS011;16051;53.024;8.630;2022-12-07T02:58:39;11.07;;;4.03;;
17937;SDS011;16051;53.024;8.630;2022-12-07T03:02:58;6.03;;;3.30;;
17937;SDS011;16051;53.024;8.630;2022-12-07T03:07:10;6.43;;;3.53;;
17937;SDS011;16051;53.024;8.630;2022-12-07T03:11:25;9.13;;;4.10;;
17937;SDS011;16051;53.024;8.630;2022-12-07T03:15:39;6.80;;;3.93;;
17937;SDS011;16051;53.024;8.630;2022-12-07T03:19:53;5.73;;;3.50;;
17937;SDS011;16051;53.024;8.630;2022-12-07T03:24:05;7.73;;;3.90;;
17937;SDS011;16051;53.024;8.630;2022-12-07T03:28:14;6.67;;;4.20;;
17937;SDS011;16051;53.024;8.630;2022-12-07T03:32:21;7.03;;;4.37;;
17937;SDS011;16051;53.024;8.630;2022-12-07T03:36:39;8.77;;;4.33;;
17937;SDS011;16051;53.024;8.630;2022-12-07T03:40:48;7.37;;;4.03;;
17937;SDS011;16051;53.024;8.630;2022-12-07T03:45:00;9.13;;;4.00;;
17937;SDS011;16051;53.024;8.630;2022-12-07T03:49:06;8.00;;;3.77;;
17937;SDS011;16051;53.024;8.630;2022-12-07T03:53:19;9.00;;;4.27;;
17937;SDS011;16051;53.024;8.630;2022-12-07T03:57:28;6.10;;;4.17;;
17937;SDS011;16051;53.024;8.630;2022-12-07T04:01:34;7.40;;;4.33;;
17937;SDS011;16051;53.024;8.630;2022-12-07T04:05:41;9.93;;;4.33;;
17937;SDS011;16051;53.024;8.630;2022-12-07T04:09:46;6.50;;;4.60;;
17937;SDS011;16051;53.024;8.630;2022-12-07T04:13:48;9.30;;;4.17;;
17937;SDS011;16051;53.024;8.630;2022-12-07T04:18:08;5.80;;;4.00;;
17937;SDS011;16051;53.024;8.630;2022-12-07T04:22:10;8.73;;;3.97;;
17937;SDS011;16051;53.024;8.630;2022-12-07T04:26:13;6.13;;;3.93;;
17937;SDS011;16051;53.024;8.630;2022-12-07T04:30:15;7.27;;;3.70;;
17937;SDS011;16051;53.024;8.630;2022-12-07T04:34:19;6.47;;;3.53;;
17937;SDS011;16051;53.024;8.630;2022-12-07T04:38:37;6.30;;;3.63;;
17937;SDS011;16051;53.024;8.630;2022-12-07T04:42:40;6.20;;;3.80;;
17937;SDS011;16051;53.024;8.630;2022-12-07T04:46:43;9.90;;;3.70;;
17937;SDS011;16051;53.024;8.630;2022-12-07T04:50:47;5.23;;;3.80;;
17937;SDS011;16051;53.024;8.630;2022-12-07T04:54:50;7.07;;;4.00;;
17937;SDS011;16051;53.024;8.630;2022-12-07T04:58:54;8.37;;;3.67;;
17937;SDS011;16051;53.024;8.630;2022-12-07T05:02:56;6.00;;;3.67;;
17937;SDS011;16051;53.024;8.630;2022-12-07T05:06:58;7.27;;;3.00;;
17937;SDS011;16051;53.024;8.630;2022-12-07T05:11:07;5.73;;;2.93;;
17937;SDS011;16051;53.024;8.630;2022-12-07T05:15:32;5.07;;;2.70;;
17937;SDS011;16051;53.024;8.630;2022-12-07T05:19:34;6.70;;;3.00;;
17937;SDS011;16051;53.024;8.630;2022-12-07T05:23:36;4.90;;;2.40;;
17937;SDS011;16051;53.024;8.630;2022-12-07T05:27:39;3.03;;;1.90;;
17937;SDS011;16051;53.024;8.630;2022-12-07T05:31:42;3.87;;;1.90;;
17937;SDS011;16051;53.024;8.630;2022-12-07T05:35:46;3.80;;;1.20;;
17937;SDS011;16051;53.024;8.630;2022-12-07T05:39:48;2.47;;;1.40;;
17937;SDS011;16051;53.024;8.630;2022-12-07T05:43:50;4.60;;;1.93;;
17937;SDS011;16051;53.024;8.630;2022-12-07T05:47:54;4.13;;;1.93;;
17937;SDS011;16051;53.024;8.630;2022-12-07T05:51:56;5.37;;;1.43;;
17937;SDS011;16051;53.024;8.630;2022-12-07T05:55:59;2.60;;;1.40;;
17937;SDS011;16051;53.024;8.630;2022-12-07T06:00:03;3.90;;;1.43;;
17937;SDS011;16051;53.024;8.630;2022-12-07T06:04:07;2.90;;;1.30;;
17937;SDS011;16051;53.024;8.630;2022-12-07T06:08:09;2.50;;;1.67;;
17937;SDS011;16051;53.024;8.630;2022-12-07T06:16:46;2.83;;;1.20;;
17937;SDS011;16051;53.024;8.630;2022-12-07T06:20:49;1.70;;;1.10;;
17937;SDS011;16051;53.024;8.630;2022-12-07T06:24:51;2.97;;;1.50;;
17937;SDS011;16051;53.024;8.630;2022-12-07T06:28:54;4.37;;;1.50;;
17937;SDS011;16051;53.024;8.630;2022-12-07T06:32:56;4.53;;;1.27;;
17937;SDS011;16051;53.024;8.630;2022-12-07T06:41:31;4.60;;;2.00;;
17937;SDS011;16051;53.024;8.630;2022-12-07T06:45:33;3.97;;;2.10;;
17937;SDS011;16051;53.024;8.630;2022-12-07T06:49:35;4.77;;;1.60;;
17937;SDS011;16051;53.024;8.630;2022-12-07T06:58:06;3.40;;;1.10;;
17937;SDS011;16051;53.024;8.630;2022-12-07T07:02:08;3.90;;;1.53;;
17937;SDS011;16051;53.024;8.630;2022-12-07T07:06:11;1.50;;;1.23;;
17937;SDS011;16051;53.024;8.630;2022-12-07T07:10:16;5.93;;;1.50;;
17937;SDS011;16051;53.024;8.630;2022-12-07T07:14:21;4.00;;;1.00;;
17937;SDS011;16051;53.024;8.630;2022-12-07T07:18:23;3.43;;;1.07;;
17937;SDS011;16051;53.024;8.630;2022-12-07T07:22:30;3.23;;;1.30;;
17937;SDS011;16051;53.024;8.630;2022-12-07T07:26:34;7.83;;;2.23;;
17937;SDS011;16051;53.024;8.630;2022-12-07T07:30:36;6.40;;;1.30;;
17937;SDS011;16051;53.024;8.630;2022-12-07T07:34:38;2.77;;;1.17;;
17937;SDS011;16051;53.024;8.630;2022-12-07T07:38:41;3.57;;;1.50;;
17937;SDS011;16051;53.024;8.630;2022-12-07T07:42:46;3.63;;;1.23;;
17937;SDS011;16051;53.024;8.630;2022-12-07T07:46:55;1.57;;;0.90;;
17937;SDS011;16051;53.024;8.630;2022-12-07T07:50:59;1.80;;;1.20;;
17937;SDS011;16051;53.024;8.630;2022-12-07T07:55:03;2.00;;;1.33;;
17937;SDS011;16051;53.024;8.630;2022-12-07T07:59:09;1.43;;;0.90;;
17937;SDS011;16051;53.024;8.630;2022-12-07T08:03:12;1.47;;;0.90;;
17937;SDS011;16051;53.024;8.630;2022-12-07T08:07:21;1.37;;;1.20;;
17937;SDS011;16051;53.024;8.630;2022-12-07T08:19:45;2.27;;;1.00;;
17937;SDS011;16051;53.024;8.630;2022-12-07T08:23:55;2.90;;;1.30;;
17937;SDS011;16051;53.024;8.630;2022-12-07T08:27:59;2.50;;;1.13;;
17937;SDS011;16051;53.024;8.630;2022-12-07T08:32:03;1.60;;;0.90;;
17937;SDS011;16051;53.024;8.630;2022-12-07T08:36:06;5.30;;;1.73;;
17937;SDS011;16051;53.024;8.630;2022-12-07T08:40:11;4.23;;;1.33;;
17937;SDS011;16051;53.024;8.630;2022-12-07T08:44:16;3.27;;;1.50;;
17937;SDS011;16051;53.024;8.630;2022-12-07T08:48:19;3.07;;;1.37;;
17937;SDS011;16051;53.024;8.630;2022-12-07T08:52:24;4.13;;;1.33;;
17937;SDS011;16051;53.024;8.630;2022-12-07T08:56:26;3.50;;;1.50;;
17937;SDS011;16051;53.024;8.630;2022-12-07T09:00:37;5.60;;;1.93;;
17937;SDS011;16051;53.024;8.630;2022-12-07T09:04:41;3.67;;;1.73;;
17937;SDS011;16051;53.024;8.630;2022-12-07T09:08:45;7.50;;;2.50;;
17937;SDS011;16051;53.024;8.630;2022-12-07T09:12:51;5.37;;;2.43;;
17937;SDS011;16051;53.024;8.630;2022-12-07T09:16:53;6.37;;;1.83;;
17937;SDS011;16051;53.024;8.630;2022-12-07T09:20:56;3.87;;;1.90;;
17937;SDS011;16051;53.024;8.630;2022-12-07T09:24:59;1.97;;;1.60;;
17937;SDS011;16051;53.024;8.630;2022-12-07T09:29:02;1.67;;;1.57;;
17937;SDS011;16051;53.024;8.630;2022-12-07T09:33:04;4.27;;;2.10;;
17937;SDS011;16051;53.024;8.630;2022-12-07T09:37:08;3.80;;;1.90;;
17937;SDS011;16051;53.024;8.630;2022-12-07T09:45:43;2.50;;;1.70;;
17937;SDS011;16051;53.024;8.630;2022-12-07T09:49:48;6.97;;;1.90;;
17937;SDS011;16051;53.024;8.630;2022-12-07T09:53:53;3.97;;;1.40;;
17937;SDS011;16051;53.024;8.630;2022-12-07T09:57:58;4.03;;;1.80;;
17937;SDS011;16051;53.024;8.630;2022-12-07T10:02:16;3.57;;;1.40;;
17937;SDS011;16051;53.024;8.630;2022-12-07T10:06:46;2.77;;;1.77;;
17937;SDS011;16051;53.024;8.630;2022-12-07T10:10:53;3.13;;;1.60;;
17937;SDS011;16051;53.024;8.630;2022-12-07T10:14:59;2.77;;;1.60;;
17937;SDS011;16051;53.024;8.630;2022-12-07T10:19:19;3.17;;;1.80;;
17937;SDS011;16051;53.024;8.630;2022-12-07T10:23:25;4.63;;;1.80;;
17937;SDS011;16051;53.024;8.630;2022-12-07T10:27:32;3.73;;;1.60;;
17937;SDS011;16051;53.024;8.630;2022-12-07T10:31:34;3.67;;;1.57;;
17937;SDS011;16051;53.024;8.630;2022-12-07T10:35:42;4.50;;;1.97;;
17937;SDS011;16051;53.024;8.630;2022-12-07T10:39:45;3.77;;;1.60;;
17937;SDS011;16051;53.024;8.630;2022-12-07T10:43:52;6.07;;;2.07;;
17937;SDS011;16051;53.024;8.630;2022-12-07T10:47:59;5.33;;;1.53;;
17937;SDS011;16051;53.024;8.630;2022-12-07T10:52:14;4.83;;;1.30;;
17937;SDS011;16051;53.024;8.630;2022-12-07T11:01:04;4.97;;;1.50;;
17937;SDS011;16051;53.024;8.630;2022-12-07T11:05:21;4.53;;;1.50;;
17937;SDS011;16051;53.024;8.630;2022-12-07T11:09:39;3.33;;;1.53;;
17937;SDS011;16051;53.024;8.630;2022-12-07T11:13:59;3.87;;;1.43;;
17937;SDS011;16051;53.024;8.630;2022-12-07T11:18:14;4.43;;;1.73;;
17937;SDS011;16051;53.024;8.630;2022-12-07T11:22:29;3.63;;;1.80;;
17937;SDS011;16051;53.024;8.630;2022-12-07T11:26:48;8.57;;;1.80;;
17937;SDS011;16051;53.024;8.630;2022-12-07T11:31:11;5.10;;;1.70;;
17937;SDS011;16051;53.024;8.630;2022-12-07T11:35:30;5.50;;;2.00;;
17937;SDS011;16051;53.024;8.630;2022-12-07T11:40:04;2.17;;;1.20;;
17937;SDS011;16051;53.024;8.630;2022-12-07T11:44:20;3.80;;;1.50;;
17937;SDS011;16051;53.024;8.630;2022-12-07T11:48:35;3.97;;;2.10;;
17937;SDS011;16051;53.024;8.630;2022-12-07T11:52:47;5.53;;;2.40;;
17937;SDS011;16051;53.024;8.630;2022-12-07T11:56:55;4.50;;;1.50;;
17937;SDS011;16051;53.024;8.630;2022-12-07T12:01:08;4.53;;;1.50;;
17937;SDS011;16051;53.024;8.630;2022-12-07T12:05:25;3.80;;;1.40;;
17937;SDS011;16051;53.024;8.630;2022-12-07T12:09:31;5.30;;;2.47;;
17937;SDS011;16051;53.024;8.630;2022-12-07T12:18:29;3.50;;;1.40;;
17937;SDS011;16051;53.024;8.630;2022-12-07T12:22:50;5.70;;;1.80;;
17937;SDS011;16051;53.024;8.630;2022-12-07T12:27:02;4.07;;;2.00;;
17937;SDS011;16051;53.024;8.630;2022-12-07T12:31:11;5.53;;;2.00;;
17937;SDS011;16051;53.024;8.630;2022-12-07T12:35:22;7.43;;;2.23;;
17937;SDS011;16051;53.024;8.630;2022-12-07T12:39:31;8.97;;;2.93;;
17937;SDS011;16051;53.024;8.630;2022-12-07T12:43:42;4.83;;;1.80;;
17937;SDS011;16051;53.024;8.630;2022-12-07T12:47:56;4.77;;;2.07;;
17937;SDS011;16051;53.024;8.630;2022-12-07T12:52:00;7.03;;;1.83;;
17937;SDS011;16051;53.024;8.630;2022-12-07T12:56:38;7.83;;;1.73;;
17937;SDS011;16051;53.024;8.630;2022-12-07T13:05:46;7.90;;;2.03;;
17937;SDS011;16051;53.024;8.630;2022-12-07T13:09:48;2.80;;;1.10;;
17937;SDS011;16051;53.024;8.630;2022-12-07T13:13:50;2.67;;;1.47;;
17937;SDS011;16051;53.024;8.630;2022-12-07T13:18:00;2.70;;;1.30;;
17937;SDS011;16051;53.024;8.630;2022-12-07T13:26:51;3.53;;;1.50;;
17937;SDS011;16051;53.024;8.630;2022-12-07T13:31:03;4.07;;;1.63;;
17937;SDS011;16051;53.024;8.630;2022-12-07T13:35:28;5.13;;;1.67;;
17937;SDS011;16051;53.024;8.630;2022-12-07T13:39:34;6.87;;;1.70;;
17937;SDS011;16051;53.024;8.630;2022-12-07T13:43:48;5.60;;;1.90;;
17937;SDS011;16051;53.024;8.630;2022-12-07T13:47:55;5.10;;;1.83;;
17937;SDS011;16051;53.024;8.630;2022-12-07T13:52:14;2.73;;;0.80;;
17937;SDS011;16051;53.024;8.630;2022-12-07T13:56:33;2.37;;;1.10;;
17937;SDS011;16051;53.024;8.630;2022-12-07T14:00:39;1.73;;;1.10;;
17937;SDS011;16051;53.024;8.630;2022-12-07T14:04:43;2.97;;;1.20;;
17937;SDS011;16051;53.024;8.630;2022-12-07T14:08:45;4.60;;;1.60;;
17937;SDS011;16051;53.024;8.630;2022-12-07T14:12:49;3.63;;;1.87;;
17937;SDS011;16051;53.024;8.630;2022-12-07T14:16:59;2.53;;;1.67;;
17937;SDS011;16051;53.024;8.630;2022-12-07T14:21:17;4.10;;;2.10;;
17937;SDS011;16051;53.024;8.630;2022-12-07T14:25:23;3.13;;;1.23;;
17937;SDS011;16051;53.024;8.630;2022-12-07T14:29:32;2.10;;;1.10;;
17937;SDS011;16051;53.024;8.630;2022-12-07T14:33:35;2.77;;;1.80;;
17937;SDS011;16051;53.024;8.630;2022-12-07T14:37:38;5.00;;;2.20;;
17937;SDS011;16051;53.024;8.630;2022-12-07T14:41:42;5.53;;;1.87;;
17937;SDS011;16051;53.024;8.630;2022-12-07T14:45:55;3.60;;;1.57;;
17937;SDS011;16051;53.024;8.630;2022-12-07T14:49:57;3.47;;;2.00;;
17937;SDS011;16051;53.024;8.630;2022-12-07T14:53:59;2.17;;;1.20;;
17937;SDS011;16051;53.024;8.630;2022-12-07T14:58:01;2.97;;;1.50;;
17937;SDS011;16051;53.024;8.630;2022-12-07T15:02:05;4.27;;;1.30;;
17937;SDS011;16051;53.024;8.630;2022-12-07T15:06:13;2.33;;;1.70;;
17937;SDS011;16051;53.024;8.630;2022-12-07T15:10:18;6.93;;;3.83;;
17937;SDS011;16051;53.024;8.630;2022-12-07T15:14:29;7.10;;;3.80;;
17937;SDS011;16051;53.024;8.630;2022-12-07T15:18:32;10.27;;;4.70;;
17937;SDS011;16051;53.024;8.630;2022-12-07T15:22:34;3.03;;;2.60;;
17937;SDS011;16051;53.024;8.630;2022-12-07T15:26:37;5.20;;;2.80;;
17937;SDS011;16051;53.024;8.630;2022-12-07T15:30:40;3.87;;;2.00;;
17937;SDS011;16051;53.024;8.630;2022-12-07T15:34:45;4.43;;;2.67;;
17937;SDS011;16051;53.024;8.630;2022-12-07T15:38:47;2.37;;;1.50;;
17937;SDS011;16051;53.024;8.630;2022-12-07T15:42:50;3.20;;;2.10;;
17937;SDS011;16051;53.024;8.630;2022-12-07T15:46:52;4.83;;;1.47;;
17937;SDS011;16051;53.024;8.630;2022-12-07T15:51:02;2.33;;;1.23;;
17937;SDS011;16051;53.024;8.630;2022-12-07T15:55:06;6.33;;;1.80;;
17937;SDS011;16051;53.024;8.630;2022-12-07T15:59:09;7.67;;;3.63;;
17937;SDS011;16051;53.024;8.630;2022-12-07T16:03:11;3.27;;;1.37;;
17937;SDS011;16051;53.024;8.630;2022-12-07T16:07:15;5.20;;;2.90;;
17937;SDS011;16051;53.024;8.630;2022-12-07T16:11:18;7.23;;;3.80;;
17937;SDS011;16051;53.024;8.630;2022-12-07T16:15:20;6.17;;;3.83;;
17937;SDS011;16051;53.024;8.630;2022-12-07T16:19:24;9.03;;;4.50;;
17937;SDS011;16051;53.024;8.630;2022-12-07T16:23:28;7.93;;;5.93;;
17937;SDS011;16051;53.024;8.630;2022-12-07T16:27:30;6.90;;;3.70;;
17937;SDS011;16051;53.024;8.630;2022-12-07T16:31:32;5.47;;;3.33;;
17937;SDS011;16051;53.024;8.630;2022-12-07T16:35:37;7.70;;;4.10;;
17937;SDS011;16051;53.024;8.630;2022-12-07T16:39:42;3.93;;;2.53;;
17937;SDS011;16051;53.024;8.630;2022-12-07T16:43:44;5.67;;;2.17;;
17937;SDS011;16051;53.024;8.630;2022-12-07T16:47:47;6.00;;;2.13;;
17937;SDS011;16051;53.024;8.630;2022-12-07T16:51:49;3.63;;;2.60;;
17937;SDS011;16051;53.024;8.630;2022-12-07T16:55:53;5.13;;;2.80;;
17937;SDS011;16051;53.024;8.630;2022-12-07T16:59:55;5.20;;;3.20;;
17937;SDS011;16051;53.024;8.630;2022-12-07T17:03:57;3.50;;;2.83;;
17937;SDS011;16051;53.024;8.630;2022-12-07T17:08:02;4.07;;;2.30;;
17937;SDS011;16051;53.024;8.630;2022-12-07T17:12:06;4.83;;;2.70;;
17937;SDS011;16051;53.024;8.630;2022-12-07T17:16:08;3.57;;;2.33;;
17937;SDS011;16051;53.024;8.630;2022-12-07T17:20:10;4.23;;;2.27;;
17937;SDS011;16051;53.024;8.630;2022-12-07T17:24:14;5.00;;;2.70;;
17937;SDS011;16051;53.024;8.630;2022-12-07T17:28:19;2.83;;;2.20;;
17937;SDS011;16051;53.024;8.630;2022-12-07T17:32:21;3.37;;;2.60;;
17937;SDS011;16051;53.024;8.630;2022-12-07T17:36:24;4.43;;;3.60;;
17937;SDS011;16051;53.024;8.630;2022-12-07T17:40:29;3.43;;;2.93;;
17937;SDS011;16051;53.024;8.630;2022-12-07T17:49:07;3.37;;;2.63;;
17937;SDS011;16051;53.024;8.630;2022-12-07T17:53:10;4.43;;;2.70;;
17937;SDS011;16051;53.024;8.630;2022-12-07T17:57:12;3.30;;;3.00;;
17937;SDS011;16051;53.024;8.630;2022-12-07T18:01:23;4.67;;;3.90;;
17937;SDS011;16051;53.024;8.630;2022-12-07T18:05:25;8.00;;;5.33;;
17937;SDS011;16051;53.024;8.630;2022-12-07T18:09:27;8.60;;;6.00;;
17937;SDS011;16051;53.024;8.630;2022-12-07T18:13:29;10.43;;;7.70;;
17937;SDS011;16051;53.024;8.630;2022-12-07T18:17:38;9.10;;;6.87;;
17937;SDS011;16051;53.024;8.630;2022-12-07T18:21:41;7.70;;;3.90;;
17937;SDS011;16051;53.024;8.630;2022-12-07T18:25:45;7.23;;;3.60;;
17937;SDS011;16051;53.024;8.630;2022-12-07T18:29:49;5.97;;;4.00;;
17937;SDS011;16051;53.024;8.630;2022-12-07T18:33:53;6.83;;;3.50;;
17937;SDS011;16051;53.024;8.630;2022-12-07T18:42:02;5.50;;;3.63;;
17937;SDS011;16051;53.024;8.630;2022-12-07T18:50:14;3.43;;;2.53;;
17937;SDS011;16051;53.024;8.630;2022-12-07T18:54:17;2.77;;;2.23;;
17937;SDS011;16051;53.024;8.630;2022-12-07T18:58:19;3.87;;;2.47;;
17937;SDS011;16051;53.024;8.630;2022-12-07T19:02:21;5.80;;;3.73;;
17937;SDS011;16051;53.024;8.630;2022-12-07T19:06:25;5.87;;;3.80;;
17937;SDS011;16051;53.024;8.630;2022-12-07T19:10:27;3.67;;;2.80;;
17937;SDS011;16051;53.024;8.630;2022-12-07T19:14:29;3.80;;;2.80;;
17937;SDS011;16051;53.024;8.630;2022-12-07T19:18:39;4.53;;;2.83;;
17937;SDS011;16051;53.024;8.630;2022-12-07T19:22:50;6.70;;;3.57;;
17937;SDS011;16051;53.024;8.630;2022-12-07T19:26:52;3.13;;;2.70;;
17937;SDS011;16051;53.024;8.630;2022-12-07T19:35:18;4.87;;;2.33;;
17937;SDS011;16051;53.024;8.630;2022-12-07T19:39:22;3.50;;;2.97;;
17937;SDS011;16051;53.024;8.630;2022-12-07T19:43:24;3.37;;;2.80;;
17937;SDS011;16051;53.024;8.630;2022-12-07T19:47:27;2.77;;;2.57;;
17937;SDS011;16051;53.024;8.630;2022-12-07T19:51:30;4.27;;;2.90;;
17937;SDS011;16051;53.024;8.630;2022-12-07T19:55:37;7.17;;;5.17;;
17937;SDS011;16051;53.024;8.630;2022-12-07T19:59:53;5.80;;;4.90;;
17937;SDS011;16051;53.024;8.630;2022-12-07T20:04:07;8.57;;;6.27;;
17937;SDS011;16051;53.024;8.630;2022-12-07T20:08:12;5.73;;;4.33;;
17937;SDS011;16051;53.024;8.630;2022-12-07T20:12:23;4.00;;;3.00;;
17937;SDS011;16051;53.024;8.630;2022-12-07T20:16:43;4.90;;;2.97;;
17937;SDS011;16051;53.024;8.630;2022-12-07T20:20:51;3.50;;;3.17;;
17937;SDS011;16051;53.024;8.630;2022-12-07T20:24:55;5.97;;;3.80;;
17937;SDS011;16051;53.024;8.630;2022-12-07T20:28:58;6.70;;;4.20;;
17937;SDS011;16051;53.024;8.630;2022-12-07T20:33:01;4.70;;;3.63;;
17937;SDS011;16051;53.024;8.630;2022-12-07T20:37:03;7.40;;;4.23;;
17937;SDS011;16051;53.024;8.630;2022-12-07T20:41:06;4.20;;;3.00;;
17937;SDS011;16051;53.024;8.630;2022-12-07T20:45:32;5.00;;;2.83;;
17937;SDS011;16051;53.024;8.630;2022-12-07T20:49:36;4.73;;;3.47;;
17937;SDS011;16051;53.024;8.630;2022-12-07T20:53:38;4.53;;;2.80;;
17937;SDS011;16051;53.024;8.630;2022-12-07T20:57:40;8.47;;;3.43;;
17937;SDS011;16051;53.024;8.630;2022-12-07T21:01:44;4.70;;;2.87;;
17937;SDS011;16051;53.024;8.630;2022-12-07T21:05:46;5.53;;;2.80;;
17937;SDS011;16051;53.024;8.630;2022-12-07T21:09:48;7.30;;;3.00;;
17937;SDS011;16051;53.024;8.630;2022-12-07T21:13:56;4.87;;;3.00;;
17937;SDS011;16051;53.024;8.630;2022-12-07T21:18:00;3.93;;;2.90;;
17937;SDS011;16051;53.024;8.630;2022-12-07T21:22:02;6.13;;;3.17;;
17937;SDS011;16051;53.024;8.630;2022-12-07T21:26:08;4.30;;;2.43;;
17937;SDS011;16051;53.024;8.630;2022-12-07T21:30:11;2.90;;;2.70;;
17937;SDS011;16051;53.024;8.630;2022-12-07T21:34:15;5.77;;;3.10;;
17937;SDS011;16051;53.024;8.630;2022-12-07T21:38:17;5.97;;;3.00;;
17937;SDS011;16051;53.024;8.630;2022-12-07T21:42:19;3.73;;;2.63;;
17937;SDS011;16051;53.024;8.630;2022-12-07T21:46:22;3.40;;;3.10;;
17937;SDS011;16051;53.024;8.630;2022-12-07T21:50:28;4.83;;;2.63;;
17937;SDS011;16051;53.024;8.630;2022-12-07T21:54:30;7.97;;;3.00;;
17937;SDS011;16051;53.024;8.630;2022-12-07T21:58:33;6.43;;;2.53;;
17937;SDS011;16051;53.024;8.630;2022-12-07T22:02:44;3.67;;;2.50;;
17937;SDS011;16051;53.024;8.630;2022-12-07T22:06:48;5.03;;;2.60;;
17937;SDS011;16051;53.024;8.630;2022-12-07T22:10:51;5.67;;;2.37;;
17937;SDS011;16051;53.024;8.630;2022-12-07T22:14:54;3.27;;;2.47;;
17937;SDS011;16051;53.024;8.630;2022-12-07T22:19:09;3.93;;;2.10;;
17937;SDS011;16051;53.024;8.630;2022-12-07T22:23:25;3.17;;;2.23;;
17937;SDS011;16051;53.024;8.630;2022-12-07T22:27:27;2.87;;;2.50;;
17937;SDS011;16051;53.024;8.630;2022-12-07T22:31:29;6.50;;;2.80;;
17937;SDS011;16051;53.024;8.630;2022-12-07T22:35:31;4.23;;;2.43;;
17937;SDS011;16051;53.024;8.630;2022-12-07T22:43:42;4.10;;;2.90;;
17937;SDS011;16051;53.024;8.630;2022-12-07T22:47:45;7.30;;;2.97;;
17937;SDS011;16051;53.024;8.630;2022-12-07T22:51:47;5.87;;;3.37;;
17937;SDS011;16051;53.024;8.630;2022-12-07T22:55:51;4.93;;;3.03;;
17937;SDS011;16051;53.024;8.630;2022-12-07T23:00:07;6.73;;;3.63;;
17937;SDS011;16051;53.024;8.630;2022-12-07T23:04:10;4.57;;;3.30;;
17937;SDS011;16051;53.024;8.630;2022-12-07T23:08:12;4.40;;;3.30;;
17937;SDS011;16051;53.024;8.630;2022-12-07T23:12:17;4.27;;;3.20;;
17937;SDS011;16051;53.024;8.630;2022-12-07T23:16:38;5.03;;;3.50;;
17937;SDS011;16051;53.024;8.630;2022-12-07T23:20:55;4.23;;;3.23;;
17937;SDS011;16051;53.024;8.630;2022-12-07T23:24:57;5.13;;;3.10;;
17937;SDS011;16051;53.024;8.630;2022-12-07T23:29:01;6.07;;;3.13;;
17937;SDS011;16051;53.024;8.630;2022-12-07T23:33:03;6.23;;;3.00;;
17937;SDS011;16051;53.024;8.630;2022-12-07T23:37:05;7.37;;;3.17;;
17937;SDS011;16051;53.024;8.630;2022-12-07T23:41:09;4.57;;;3.17;;
17937;SDS011;16051;53.024;8.630;2022-12-07T23:45:15;4.20;;;3.23;;
17937;SDS011;16051;53.024;8.630;2022-12-07T23:49:17;5.63;;;3.53;;
17937;SDS011;16051;53.024;8.630;2022-12-07T23:53:19;4.03;;;2.70;;
17937;SDS011;16051;53.024;8.630;2022-12-07T23:57:27;6.77;;;3.23;;
